sensor_id;sensor_type;location;lat;lon;timestamp;temperature;humidity
29731;DHT22;16639;51.488;0.152;2023-05-27T00:00:24;12.20;99.90
29731;DHT22;16639;51.488;0.152;2023-05-27T00:02:51;12.10;99.90
29731;DHT22;16639;51.488;0.152;2023-05-27T00:05:19;12.10;99.90
29731;DHT22;16639;51.488;0.152;2023-05-27T00:07:46;12.00;99.90
29731;DHT22;16639;51.488;0.152;2023-05-27T00:10:14;11.90;99.90
29731;DHT22;16639;51.488;0.152;2023-05-27T00:12:42;11.90;99.90
29731;DHT22;16639;51.488;0.152;2023-05-27T00:15:10;11.90;99.90
29731;DHT22;16639;51.488;0.152;2023-05-27T00:18:07;11.90;99.90
29731;DHT22;16639;51.488;0.152;2023-05-27T00:20:34;11.90;99.90
29731;DHT22;16639;51.488;0.152;2023-05-27T00:23:02;11.90;99.90
29731;DHT22;16639;51.488;0.152;2023-05-27T00:25:30;11.80;99.90
29731;DHT22;16639;51.488;0.152;2023-05-27T00:27:59;11.90;99.90
29731;DHT22;16639;51.488;0.152;2023-05-27T00:30:26;11.90;99.90
29731;DHT22;16639;51.488;0.152;2023-05-27T00:32:55;11.90;99.90
29731;DHT22;16639;51.488;0.152;2023-05-27T00:35:25;11.90;99.90
29731;DHT22;16639;51.488;0.152;2023-05-27T00:37:54;11.80;99.90
29731;DHT22;16639;51.488;0.152;2023-05-27T00:40:23;11.80;99.90
29731;DHT22;16639;51.488;0.152;2023-05-27T00:42:51;11.80;99.90
29731;DHT22;16639;51.488;0.152;2023-05-27T00:45:19;11.70;99.90
29731;DHT22;16639;51.488;0.152;2023-05-27T00:47:47;11.90;99.90
29731;DHT22;16639;51.488;0.152;2023-05-27T00:50:14;11.40;99.90
29731;DHT22;16639;51.488;0.152;2023-05-27T00:52:42;11.80;99.90
29731;DHT22;16639;51.488;0.152;2023-05-27T00:55:09;11.90;99.90
29731;DHT22;16639;51.488;0.152;2023-05-27T00:57:37;11.80;99.90
29731;DHT22;16639;51.488;0.152;2023-05-27T01:00:05;11.80;99.90
29731;DHT22;16639;51.488;0.152;2023-05-27T01:02:38;11.80;99.90
29731;DHT22;16639;51.488;0.152;2023-05-27T01:05:13;11.90;99.90
29731;DHT22;16639;51.488;0.152;2023-05-27T01:12:54;11.80;99.90
29731;DHT22;16639;51.488;0.152;2023-05-27T01:15:27;11.80;99.90
29731;DHT22;16639;51.488;0.152;2023-05-27T01:18:00;11.80;99.90
29731;DHT22;16639;51.488;0.152;2023-05-27T01:20:30;11.70;99.90
29731;DHT22;16639;51.488;0.152;2023-05-27T01:43:48;11.50;99.90
29731;DHT22;16639;51.488;0.152;2023-05-27T01:58:25;11.40;99.90
29731;DHT22;16639;51.488;0.152;2023-05-27T02:00:52;11.40;99.90
29731;DHT22;16639;51.488;0.152;2023-05-27T02:03:20;11.40;99.90
29731;DHT22;16639;51.488;0.152;2023-05-27T02:05:47;11.30;99.90
29731;DHT22;16639;51.488;0.152;2023-05-27T02:08:14;11.30;99.90
29731;DHT22;16639;51.488;0.152;2023-05-27T02:10:42;11.30;99.90
29731;DHT22;16639;51.488;0.152;2023-05-27T02:13:09;11.20;99.90
29731;DHT22;16639;51.488;0.152;2023-05-27T02:15:37;11.20;99.90
29731;DHT22;16639;51.488;0.152;2023-05-27T02:18:05;11.10;99.90
29731;DHT22;16639;51.488;0.152;2023-05-27T02:20:33;11.10;99.90
29731;DHT22;16639;51.488;0.152;2023-05-27T02:23:12;11.10;99.90
29731;DHT22;16639;51.488;0.152;2023-05-27T02:25:40;11.10;99.90
29731;DHT22;16639;51.488;0.152;2023-05-27T02:28:07;11.10;99.90
29731;DHT22;16639;51.488;0.152;2023-05-27T02:30:35;11.00;99.90
29731;DHT22;16639;51.488;0.152;2023-05-27T02:33:02;11.00;99.90
29731;DHT22;16639;51.488;0.152;2023-05-27T02:35:30;10.90;99.90
29731;DHT22;16639;51.488;0.152;2023-05-27T02:37:57;11.00;99.90
29731;DHT22;16639;51.488;0.152;2023-05-27T02:40:26;11.00;99.90
29731;DHT22;16639;51.488;0.152;2023-05-27T02:42:54;11.00;99.90
29731;DHT22;16639;51.488;0.152;2023-05-27T02:45:22;10.90;99.90
29731;DHT22;16639;51.488;0.152;2023-05-27T02:47:51;9.60;99.90
29731;DHT22;16639;51.488;0.152;2023-05-27T02:50:18;10.80;99.90
29731;DHT22;16639;51.488;0.152;2023-05-27T02:52:45;10.80;99.90
29731;DHT22;16639;51.488;0.152;2023-05-27T02:55:13;10.70;99.90
29731;DHT22;16639;51.488;0.152;2023-05-27T02:57:40;10.70;99.90
29731;DHT22;16639;51.488;0.152;2023-05-27T03:00:08;10.80;99.90
29731;DHT22;16639;51.488;0.152;2023-05-27T03:02:36;10.80;99.90
29731;DHT22;16639;51.488;0.152;2023-05-27T03:05:04;10.90;99.90
29731;DHT22;16639;51.488;0.152;2023-05-27T03:07:32;10.80;99.90
29731;DHT22;16639;51.488;0.152;2023-05-27T03:09:59;10.30;99.90
29731;DHT22;16639;51.488;0.152;2023-05-27T03:12:26;10.90;99.90
29731;DHT22;16639;51.488;0.152;2023-05-27T03:14:54;10.90;99.90
29731;DHT22;16639;51.488;0.152;2023-05-27T03:17:22;10.90;99.90
29731;DHT22;16639;51.488;0.152;2023-05-27T03:19:49;11.00;99.90
29731;DHT22;16639;51.488;0.152;2023-05-27T03:22:17;10.90;99.90
29731;DHT22;16639;51.488;0.152;2023-05-27T03:24:44;10.90;99.90
29731;DHT22;16639;51.488;0.152;2023-05-27T03:27:12;11.00;99.90
29731;DHT22;16639;51.488;0.152;2023-05-27T03:29:40;10.80;99.90
29731;DHT22;16639;51.488;0.152;2023-05-27T03:32:08;10.90;99.90
29731;DHT22;16639;51.488;0.152;2023-05-27T03:34:37;10.60;99.90
29731;DHT22;16639;51.488;0.152;2023-05-27T03:37:05;10.80;99.90
29731;DHT22;16639;51.488;0.152;2023-05-27T03:39:32;10.70;99.90
29731;DHT22;16639;51.488;0.152;2023-05-27T03:41:59;10.60;99.90
29731;DHT22;16639;51.488;0.152;2023-05-27T03:44:27;10.60;99.90
29731;DHT22;16639;51.488;0.152;2023-05-27T03:46:55;10.60;99.90
29731;DHT22;16639;51.488;0.152;2023-05-27T03:49:22;10.50;99.90
29731;DHT22;16639;51.488;0.152;2023-05-27T03:51:50;10.60;99.90
29731;DHT22;16639;51.488;0.152;2023-05-27T03:54:17;10.40;99.90
29731;DHT22;16639;51.488;0.152;2023-05-27T03:56:45;10.60;99.90
29731;DHT22;16639;51.488;0.152;2023-05-27T03:59:12;10.60;99.90
29731;DHT22;16639;51.488;0.152;2023-05-27T04:01:40;10.60;99.90
29731;DHT22;16639;51.488;0.152;2023-05-27T04:04:08;10.50;99.90
29731;DHT22;16639;51.488;0.152;2023-05-27T04:06:36;10.50;99.90
29731;DHT22;16639;51.488;0.152;2023-05-27T04:09:03;10.50;99.90
29731;DHT22;16639;51.488;0.152;2023-05-27T04:11:31;10.50;99.90
29731;DHT22;16639;51.488;0.152;2023-05-27T04:13:58;10.60;99.90
29731;DHT22;16639;51.488;0.152;2023-05-27T04:16:25;10.50;99.90
29731;DHT22;16639;51.488;0.152;2023-05-27T04:18:53;10.60;99.90
29731;DHT22;16639;51.488;0.152;2023-05-27T04:21:20;10.60;99.90
29731;DHT22;16639;51.488;0.152;2023-05-27T04:23:48;10.60;99.90
29731;DHT22;16639;51.488;0.152;2023-05-27T04:26:15;10.60;99.90
29731;DHT22;16639;51.488;0.152;2023-05-27T04:28:43;10.60;99.90
29731;DHT22;16639;51.488;0.152;2023-05-27T04:31:12;10.70;99.90
29731;DHT22;16639;51.488;0.152;2023-05-27T04:33:40;10.70;99.90
29731;DHT22;16639;51.488;0.152;2023-05-27T04:36:08;10.70;99.90
29731;DHT22;16639;51.488;0.152;2023-05-27T04:38:36;10.80;99.90
29731;DHT22;16639;51.488;0.152;2023-05-27T04:41:03;10.80;99.90
29731;DHT22;16639;51.488;0.152;2023-05-27T04:43:31;10.90;99.90
29731;DHT22;16639;51.488;0.152;2023-05-27T04:45:58;10.90;99.90
29731;DHT22;16639;51.488;0.152;2023-05-27T04:48:29;11.00;99.90
29731;DHT22;16639;51.488;0.152;2023-05-27T04:50:57;11.00;99.90
29731;DHT22;16639;51.488;0.152;2023-05-27T04:53:24;11.10;99.90
29731;DHT22;16639;51.488;0.152;2023-05-27T04:55:52;11.20;99.90
29731;DHT22;16639;51.488;0.152;2023-05-27T04:58:19;11.20;99.90
29731;DHT22;16639;51.488;0.152;2023-05-27T05:00:47;11.20;99.90
29731;DHT22;16639;51.488;0.152;2023-05-27T05:03:21;11.40;99.90
29731;DHT22;16639;51.488;0.152;2023-05-27T05:05:50;11.40;99.90
29731;DHT22;16639;51.488;0.152;2023-05-27T05:08:21;11.50;99.90
29731;DHT22;16639;51.488;0.152;2023-05-27T05:10:48;11.60;99.90
29731;DHT22;16639;51.488;0.152;2023-05-27T05:13:16;11.60;99.90
29731;DHT22;16639;51.488;0.152;2023-05-27T05:15:44;11.60;99.90
29731;DHT22;16639;51.488;0.152;2023-05-27T05:18:12;11.60;99.90
29731;DHT22;16639;51.488;0.152;2023-05-27T05:20:39;11.60;99.90
29731;DHT22;16639;51.488;0.152;2023-05-27T05:23:08;11.60;99.90
29731;DHT22;16639;51.488;0.152;2023-05-27T05:25:36;11.70;99.90
29731;DHT22;16639;51.488;0.152;2023-05-27T05:28:05;11.70;99.90
29731;DHT22;16639;51.488;0.152;2023-05-27T05:30:33;11.80;99.90
29731;DHT22;16639;51.488;0.152;2023-05-27T05:33:00;11.80;99.90
29731;DHT22;16639;51.488;0.152;2023-05-27T05:35:28;11.80;99.90
29731;DHT22;16639;51.488;0.152;2023-05-27T05:37:55;11.90;99.90
29731;DHT22;16639;51.488;0.152;2023-05-27T05:40:23;11.90;99.90
29731;DHT22;16639;51.488;0.152;2023-05-27T05:42:50;12.00;99.90
29731;DHT22;16639;51.488;0.152;2023-05-27T05:45:18;12.00;99.90
29731;DHT22;16639;51.488;0.152;2023-05-27T05:47:45;12.00;99.90
29731;DHT22;16639;51.488;0.152;2023-05-27T05:50:13;12.10;99.90
29731;DHT22;16639;51.488;0.152;2023-05-27T05:52:40;12.00;99.90
29731;DHT22;16639;51.488;0.152;2023-05-27T05:55:08;12.00;99.90
29731;DHT22;16639;51.488;0.152;2023-05-27T05:57:35;12.10;99.90
29731;DHT22;16639;51.488;0.152;2023-05-27T06:00:03;12.10;99.90
29731;DHT22;16639;51.488;0.152;2023-05-27T06:02:32;12.10;99.90
29731;DHT22;16639;51.488;0.152;2023-05-27T06:05:00;12.10;99.90
29731;DHT22;16639;51.488;0.152;2023-05-27T06:07:27;12.20;99.90
29731;DHT22;16639;51.488;0.152;2023-05-27T06:09:54;12.20;99.90
29731;DHT22;16639;51.488;0.152;2023-05-27T06:12:22;12.20;99.90
29731;DHT22;16639;51.488;0.152;2023-05-27T06:14:51;12.20;99.90
29731;DHT22;16639;51.488;0.152;2023-05-27T06:17:19;12.20;99.90
29731;DHT22;16639;51.488;0.152;2023-05-27T06:19:47;12.30;99.90
29731;DHT22;16639;51.488;0.152;2023-05-27T06:22:14;12.30;99.90
29731;DHT22;16639;51.488;0.152;2023-05-27T06:24:43;12.30;99.90
29731;DHT22;16639;51.488;0.152;2023-05-27T06:27:10;12.40;99.90
29731;DHT22;16639;51.488;0.152;2023-05-27T06:29:37;12.40;99.90
29731;DHT22;16639;51.488;0.152;2023-05-27T06:32:05;12.30;99.90
29731;DHT22;16639;51.488;0.152;2023-05-27T06:34:34;12.40;99.90
29731;DHT22;16639;51.488;0.152;2023-05-27T06:37:01;12.50;99.90
29731;DHT22;16639;51.488;0.152;2023-05-27T06:39:29;12.50;99.90
29731;DHT22;16639;51.488;0.152;2023-05-27T06:41:56;12.50;99.90
29731;DHT22;16639;51.488;0.152;2023-05-27T06:44:24;12.50;99.90
29731;DHT22;16639;51.488;0.152;2023-05-27T06:46:51;12.50;99.90
29731;DHT22;16639;51.488;0.152;2023-05-27T06:49:20;12.50;99.90
29731;DHT22;16639;51.488;0.152;2023-05-27T06:51:47;12.50;99.90
29731;DHT22;16639;51.488;0.152;2023-05-27T06:54:14;12.60;99.90
29731;DHT22;16639;51.488;0.152;2023-05-27T06:56:42;12.60;99.90
29731;DHT22;16639;51.488;0.152;2023-05-27T06:59:09;12.60;99.90
29731;DHT22;16639;51.488;0.152;2023-05-27T07:01:37;12.60;99.90
29731;DHT22;16639;51.488;0.152;2023-05-27T07:04:07;12.60;99.90
29731;DHT22;16639;51.488;0.152;2023-05-27T07:06:37;12.70;99.90
29731;DHT22;16639;51.488;0.152;2023-05-27T07:09:05;12.60;99.90
29731;DHT22;16639;51.488;0.152;2023-05-27T07:11:32;12.70;99.90
29731;DHT22;16639;51.488;0.152;2023-05-27T07:14:00;12.80;99.90
29731;DHT22;16639;51.488;0.152;2023-05-27T07:16:28;12.90;99.90
29731;DHT22;16639;51.488;0.152;2023-05-27T07:18:57;12.90;99.90
29731;DHT22;16639;51.488;0.152;2023-05-27T07:21:24;12.70;99.90
29731;DHT22;16639;51.488;0.152;2023-05-27T07:23:52;12.90;99.90
29731;DHT22;16639;51.488;0.152;2023-05-27T07:26:19;13.00;99.90
29731;DHT22;16639;51.488;0.152;2023-05-27T07:28:47;13.00;99.90
29731;DHT22;16639;51.488;0.152;2023-05-27T07:31:14;12.30;99.90
29731;DHT22;16639;51.488;0.152;2023-05-27T07:33:42;13.10;99.90
29731;DHT22;16639;51.488;0.152;2023-05-27T07:36:09;13.20;99.90
29731;DHT22;16639;51.488;0.152;2023-05-27T07:38:37;14.00;99.90
29731;DHT22;16639;51.488;0.152;2023-05-27T07:41:04;13.30;99.90
29731;DHT22;16639;51.488;0.152;2023-05-27T07:43:32;13.30;99.90
29731;DHT22;16639;51.488;0.152;2023-05-27T07:45:59;13.50;99.90
29731;DHT22;16639;51.488;0.152;2023-05-27T07:48:28;13.60;99.90
29731;DHT22;16639;51.488;0.152;2023-05-27T07:50:56;13.70;99.90
29731;DHT22;16639;51.488;0.152;2023-05-27T07:53:23;13.80;99.90
29731;DHT22;16639;51.488;0.152;2023-05-27T07:55:51;13.80;99.90
29731;DHT22;16639;51.488;0.152;2023-05-27T07:58:18;13.80;99.90
29731;DHT22;16639;51.488;0.152;2023-05-27T08:00:46;13.80;99.90
29731;DHT22;16639;51.488;0.152;2023-05-27T08:03:13;13.90;99.90
29731;DHT22;16639;51.488;0.152;2023-05-27T08:05:41;13.90;99.90
29731;DHT22;16639;51.488;0.152;2023-05-27T08:08:08;13.80;99.90
29731;DHT22;16639;51.488;0.152;2023-05-27T08:10:36;14.00;99.90
29731;DHT22;16639;51.488;0.152;2023-05-27T08:13:03;14.00;99.90
29731;DHT22;16639;51.488;0.152;2023-05-27T08:15:31;14.10;99.90
29731;DHT22;16639;51.488;0.152;2023-05-27T08:17:59;14.20;99.90
29731;DHT22;16639;51.488;0.152;2023-05-27T08:20:27;14.20;99.90
29731;DHT22;16639;51.488;0.152;2023-05-27T08:22:57;14.30;99.90
29731;DHT22;16639;51.488;0.152;2023-05-27T08:25:24;14.30;99.90
29731;DHT22;16639;51.488;0.152;2023-05-27T08:27:53;14.40;99.90
29731;DHT22;16639;51.488;0.152;2023-05-27T08:30:21;14.50;99.90
29731;DHT22;16639;51.488;0.152;2023-05-27T08:32:49;14.60;99.90
29731;DHT22;16639;51.488;0.152;2023-05-27T08:35:18;15.20;99.90
29731;DHT22;16639;51.488;0.152;2023-05-27T08:37:47;14.70;99.90
29731;DHT22;16639;51.488;0.152;2023-05-27T08:40:17;15.00;99.90
29731;DHT22;16639;51.488;0.152;2023-05-27T08:42:46;14.70;99.90
29731;DHT22;16639;51.488;0.152;2023-05-27T08:45:14;14.70;99.90
29731;DHT22;16639;51.488;0.152;2023-05-27T08:47:42;14.60;99.90
29731;DHT22;16639;51.488;0.152;2023-05-27T08:50:10;14.60;99.90
29731;DHT22;16639;51.488;0.152;2023-05-27T08:52:49;14.10;99.90
29731;DHT22;16639;51.488;0.152;2023-05-27T08:55:22;14.50;99.90
29731;DHT22;16639;51.488;0.152;2023-05-27T08:57:51;14.90;99.90
29731;DHT22;16639;51.488;0.152;2023-05-27T09:00:22;14.70;99.90
29731;DHT22;16639;51.488;0.152;2023-05-27T09:02:49;14.70;99.90
29731;DHT22;16639;51.488;0.152;2023-05-27T09:05:17;14.70;99.90
29731;DHT22;16639;51.488;0.152;2023-05-27T09:07:45;14.70;99.90
29731;DHT22;16639;51.488;0.152;2023-05-27T09:10:13;14.60;99.90
29731;DHT22;16639;51.488;0.152;2023-05-27T09:12:43;14.70;99.90
29731;DHT22;16639;51.488;0.152;2023-05-27T09:15:12;14.70;99.90
29731;DHT22;16639;51.488;0.152;2023-05-27T09:17:42;14.70;99.90
29731;DHT22;16639;51.488;0.152;2023-05-27T09:20:11;14.70;99.90
29731;DHT22;16639;51.488;0.152;2023-05-27T09:22:41;14.70;99.90
29731;DHT22;16639;51.488;0.152;2023-05-27T09:25:09;14.60;99.90
29731;DHT22;16639;51.488;0.152;2023-05-27T09:27:42;14.60;99.90
29731;DHT22;16639;51.488;0.152;2023-05-27T09:30:11;14.60;99.90
29731;DHT22;16639;51.488;0.152;2023-05-27T09:32:39;14.50;99.90
29731;DHT22;16639;51.488;0.152;2023-05-27T09:35:07;14.40;99.90
29731;DHT22;16639;51.488;0.152;2023-05-27T09:37:35;14.50;99.90
29731;DHT22;16639;51.488;0.152;2023-05-27T09:40:08;14.50;99.90
29731;DHT22;16639;51.488;0.152;2023-05-27T09:42:43;14.70;99.90
29731;DHT22;16639;51.488;0.152;2023-05-27T09:45:14;14.60;99.90
29731;DHT22;16639;51.488;0.152;2023-05-27T09:47:53;14.60;99.90
29731;DHT22;16639;51.488;0.152;2023-05-27T09:50:21;14.50;99.90
29731;DHT22;16639;51.488;0.152;2023-05-27T09:52:49;14.50;99.90
29731;DHT22;16639;51.488;0.152;2023-05-27T09:55:36;14.50;99.90
29731;DHT22;16639;51.488;0.152;2023-05-27T09:58:05;14.50;99.90
29731;DHT22;16639;51.488;0.152;2023-05-27T10:00:33;14.50;99.90
29731;DHT22;16639;51.488;0.152;2023-05-27T10:03:02;14.60;99.90
29731;DHT22;16639;51.488;0.152;2023-05-27T10:05:31;14.50;99.90
29731;DHT22;16639;51.488;0.152;2023-05-27T10:07:58;14.60;99.90
29731;DHT22;16639;51.488;0.152;2023-05-27T10:10:46;14.60;99.90
29731;DHT22;16639;51.488;0.152;2023-05-27T10:13:14;14.70;99.90
29731;DHT22;16639;51.488;0.152;2023-05-27T10:15:47;14.80;99.90
29731;DHT22;16639;51.488;0.152;2023-05-27T10:18:27;14.80;99.90
29731;DHT22;16639;51.488;0.152;2023-05-27T10:20:59;14.90;99.90
29731;DHT22;16639;51.488;0.152;2023-05-27T10:23:28;14.80;99.90
29731;DHT22;16639;51.488;0.152;2023-05-27T10:26:00;14.80;99.90
29731;DHT22;16639;51.488;0.152;2023-05-27T10:28:30;14.70;99.90
29731;DHT22;16639;51.488;0.152;2023-05-27T10:31:06;14.60;99.90
29731;DHT22;16639;51.488;0.152;2023-05-27T10:33:36;14.80;99.90
29731;DHT22;16639;51.488;0.152;2023-05-27T10:36:07;14.80;99.90
29731;DHT22;16639;51.488;0.152;2023-05-27T10:38:36;14.90;99.90
29731;DHT22;16639;51.488;0.152;2023-05-27T10:41:05;14.90;99.90
29731;DHT22;16639;51.488;0.152;2023-05-27T10:43:34;15.00;99.90
29731;DHT22;16639;51.488;0.152;2023-05-27T10:46:09;14.90;99.90
29731;DHT22;16639;51.488;0.152;2023-05-27T10:48:37;15.10;99.90
29731;DHT22;16639;51.488;0.152;2023-05-27T10:51:07;15.20;99.90
29731;DHT22;16639;51.488;0.152;2023-05-27T10:53:36;14.30;99.90
29731;DHT22;16639;51.488;0.152;2023-05-27T10:56:04;15.20;99.90
29731;DHT22;16639;51.488;0.152;2023-05-27T10:58:36;15.30;99.90
29731;DHT22;16639;51.488;0.152;2023-05-27T11:01:10;15.30;99.90
29731;DHT22;16639;51.488;0.152;2023-05-27T11:03:45;15.30;99.90
29731;DHT22;16639;51.488;0.152;2023-05-27T11:06:14;15.20;99.90
29731;DHT22;16639;51.488;0.152;2023-05-27T11:08:43;15.30;99.90
29731;DHT22;16639;51.488;0.152;2023-05-27T11:11:11;15.30;99.90
29731;DHT22;16639;51.488;0.152;2023-05-27T11:13:46;15.30;99.90
29731;DHT22;16639;51.488;0.152;2023-05-27T11:16:17;15.20;99.90
29731;DHT22;16639;51.488;0.152;2023-05-27T11:18:47;15.30;99.90
29731;DHT22;16639;51.488;0.152;2023-05-27T11:21:16;15.40;99.90
29731;DHT22;16639;51.488;0.152;2023-05-27T11:23:46;15.50;99.90
29731;DHT22;16639;51.488;0.152;2023-05-27T11:26:19;15.50;99.90
29731;DHT22;16639;51.488;0.152;2023-05-27T11:28:53;15.50;99.90
29731;DHT22;16639;51.488;0.152;2023-05-27T11:31:27;16.40;99.90
29731;DHT22;16639;51.488;0.152;2023-05-27T11:33:55;15.60;99.90
29731;DHT22;16639;51.488;0.152;2023-05-27T11:36:26;15.60;99.90
29731;DHT22;16639;51.488;0.152;2023-05-27T11:38:56;15.60;99.90
29731;DHT22;16639;51.488;0.152;2023-05-27T11:41:26;15.60;99.90
29731;DHT22;16639;51.488;0.152;2023-05-27T11:43:59;15.60;99.90
29731;DHT22;16639;51.488;0.152;2023-05-27T11:46:43;15.70;99.90
29731;DHT22;16639;51.488;0.152;2023-05-27T11:49:16;15.80;99.90
29731;DHT22;16639;51.488;0.152;2023-05-27T11:51:48;15.80;99.90
29731;DHT22;16639;51.488;0.152;2023-05-27T11:54:20;15.80;99.90
29731;DHT22;16639;51.488;0.152;2023-05-27T11:56:49;15.80;99.90
29731;DHT22;16639;51.488;0.152;2023-05-27T11:59:18;15.90;99.90
29731;DHT22;16639;51.488;0.152;2023-05-27T12:01:46;15.80;99.90
29731;DHT22;16639;51.488;0.152;2023-05-27T12:04:14;15.90;99.90
29731;DHT22;16639;51.488;0.152;2023-05-27T12:06:45;15.40;99.90
29731;DHT22;16639;51.488;0.152;2023-05-27T12:09:13;16.00;99.90
29731;DHT22;16639;51.488;0.152;2023-05-27T12:11:42;15.70;99.90
29731;DHT22;16639;51.488;0.152;2023-05-27T12:14:09;16.00;99.90
29731;DHT22;16639;51.488;0.152;2023-05-27T12:16:37;16.20;99.90
29731;DHT22;16639;51.488;0.152;2023-05-27T12:19:05;16.20;99.90
29731;DHT22;16639;51.488;0.152;2023-05-27T12:21:32;16.20;99.90
29731;DHT22;16639;51.488;0.152;2023-05-27T12:24:00;16.20;99.90
29731;DHT22;16639;51.488;0.152;2023-05-27T12:26:28;16.20;99.90
29731;DHT22;16639;51.488;0.152;2023-05-27T12:28:56;16.20;99.90
29731;DHT22;16639;51.488;0.152;2023-05-27T12:31:24;16.30;99.90
29731;DHT22;16639;51.488;0.152;2023-05-27T12:33:51;16.30;99.90
29731;DHT22;16639;51.488;0.152;2023-05-27T12:36:19;16.60;99.90
29731;DHT22;16639;51.488;0.152;2023-05-27T12:38:49;16.50;99.90
29731;DHT22;16639;51.488;0.152;2023-05-27T12:41:17;16.50;99.90
29731;DHT22;16639;51.488;0.152;2023-05-27T12:43:44;16.50;99.90
29731;DHT22;16639;51.488;0.152;2023-05-27T12:46:13;16.60;99.90
29731;DHT22;16639;51.488;0.152;2023-05-27T12:48:40;16.60;99.90
29731;DHT22;16639;51.488;0.152;2023-05-27T12:51:10;16.60;99.90
29731;DHT22;16639;51.488;0.152;2023-05-27T12:53:38;16.60;99.90
29731;DHT22;16639;51.488;0.152;2023-05-27T12:56:06;16.60;99.90
29731;DHT22;16639;51.488;0.152;2023-05-27T12:58:33;16.60;99.90
29731;DHT22;16639;51.488;0.152;2023-05-27T13:01:01;16.60;99.90
29731;DHT22;16639;51.488;0.152;2023-05-27T13:03:28;16.70;99.90
29731;DHT22;16639;51.488;0.152;2023-05-27T13:05:56;16.70;99.90
29731;DHT22;16639;51.488;0.152;2023-05-27T13:08:24;16.70;99.90
29731;DHT22;16639;51.488;0.152;2023-05-27T13:10:52;17.20;99.90
29731;DHT22;16639;51.488;0.152;2023-05-27T13:13:19;16.90;99.90
29731;DHT22;16639;51.488;0.152;2023-05-27T13:15:50;16.90;99.90
29731;DHT22;16639;51.488;0.152;2023-05-27T13:18:18;16.90;99.90
29731;DHT22;16639;51.488;0.152;2023-05-27T13:20:45;17.00;99.90
29731;DHT22;16639;51.488;0.152;2023-05-27T13:23:12;17.00;99.90
29731;DHT22;16639;51.488;0.152;2023-05-27T13:25:40;17.00;99.90
29731;DHT22;16639;51.488;0.152;2023-05-27T13:28:07;17.00;99.90
29731;DHT22;16639;51.488;0.152;2023-05-27T13:30:35;17.00;99.90
29731;DHT22;16639;51.488;0.152;2023-05-27T13:33:02;17.00;99.90
29731;DHT22;16639;51.488;0.152;2023-05-27T13:35:30;17.10;99.90
29731;DHT22;16639;51.488;0.152;2023-05-27T13:38:00;17.10;99.90
29731;DHT22;16639;51.488;0.152;2023-05-27T13:40:30;17.10;99.90
29731;DHT22;16639;51.488;0.152;2023-05-27T13:42:59;17.10;99.90
29731;DHT22;16639;51.488;0.152;2023-05-27T13:45:26;17.20;99.90
29731;DHT22;16639;51.488;0.152;2023-05-27T13:47:54;17.20;99.90
29731;DHT22;16639;51.488;0.152;2023-05-27T13:50:22;17.30;99.90
29731;DHT22;16639;51.488;0.152;2023-05-27T13:52:49;17.50;99.90
29731;DHT22;16639;51.488;0.152;2023-05-27T13:55:17;17.30;99.90
29731;DHT22;16639;51.488;0.152;2023-05-27T13:57:44;17.30;99.90
29731;DHT22;16639;51.488;0.152;2023-05-27T14:00:12;17.40;99.90
29731;DHT22;16639;51.488;0.152;2023-05-27T14:02:40;17.40;99.90
29731;DHT22;16639;51.488;0.152;2023-05-27T14:05:09;17.50;99.90
29731;DHT22;16639;51.488;0.152;2023-05-27T14:07:41;17.50;99.90
29731;DHT22;16639;51.488;0.152;2023-05-27T14:10:10;17.50;99.90
29731;DHT22;16639;51.488;0.152;2023-05-27T14:12:38;17.60;99.90
29731;DHT22;16639;51.488;0.152;2023-05-27T14:15:06;17.60;99.90
29731;DHT22;16639;51.488;0.152;2023-05-27T14:17:36;17.60;99.90
29731;DHT22;16639;51.488;0.152;2023-05-27T14:20:06;17.60;99.90
29731;DHT22;16639;51.488;0.152;2023-05-27T14:22:39;17.60;99.90
29731;DHT22;16639;51.488;0.152;2023-05-27T14:25:09;17.60;99.90
29731;DHT22;16639;51.488;0.152;2023-05-27T14:27:40;17.60;99.90
29731;DHT22;16639;51.488;0.152;2023-05-27T14:30:12;17.60;99.90
29731;DHT22;16639;51.488;0.152;2023-05-27T14:32:41;17.60;99.90
29731;DHT22;16639;51.488;0.152;2023-05-27T14:35:09;17.60;99.90
29731;DHT22;16639;51.488;0.152;2023-05-27T14:37:36;17.60;99.90
29731;DHT22;16639;51.488;0.152;2023-05-27T14:40:04;17.60;99.90
29731;DHT22;16639;51.488;0.152;2023-05-27T14:42:32;17.60;99.90
29731;DHT22;16639;51.488;0.152;2023-05-27T14:44:59;17.60;99.90
29731;DHT22;16639;51.488;0.152;2023-05-27T14:47:26;17.60;99.90
29731;DHT22;16639;51.488;0.152;2023-05-27T14:49:54;17.50;99.90
29731;DHT22;16639;51.488;0.152;2023-05-27T14:52:21;17.60;99.90
29731;DHT22;16639;51.488;0.152;2023-05-27T14:54:49;17.50;99.90
29731;DHT22;16639;51.488;0.152;2023-05-27T14:57:17;17.60;99.90
29731;DHT22;16639;51.488;0.152;2023-05-27T14:59:46;17.60;99.90
29731;DHT22;16639;51.488;0.152;2023-05-27T15:02:15;17.70;99.90
29731;DHT22;16639;51.488;0.152;2023-05-27T15:04:43;17.70;99.90
29731;DHT22;16639;51.488;0.152;2023-05-27T15:07:10;17.70;99.90
29731;DHT22;16639;51.488;0.152;2023-05-27T15:09:38;17.70;99.90
29731;DHT22;16639;51.488;0.152;2023-05-27T15:12:05;17.70;99.90
29731;DHT22;16639;51.488;0.152;2023-05-27T15:14:34;17.70;99.90
29731;DHT22;16639;51.488;0.152;2023-05-27T15:17:01;17.70;99.90
29731;DHT22;16639;51.488;0.152;2023-05-27T15:19:29;17.80;99.90
29731;DHT22;16639;51.488;0.152;2023-05-27T15:21:57;17.80;99.90
29731;DHT22;16639;51.488;0.152;2023-05-27T15:24:25;17.80;99.90
29731;DHT22;16639;51.488;0.152;2023-05-27T15:26:52;17.80;99.90
29731;DHT22;16639;51.488;0.152;2023-05-27T15:29:21;17.80;99.90
29731;DHT22;16639;51.488;0.152;2023-05-27T15:31:48;17.80;99.90
29731;DHT22;16639;51.488;0.152;2023-05-27T15:34:16;17.80;99.90
29731;DHT22;16639;51.488;0.152;2023-05-27T15:36:43;17.90;99.90
29731;DHT22;16639;51.488;0.152;2023-05-27T15:39:11;17.90;99.90
29731;DHT22;16639;51.488;0.152;2023-05-27T15:41:39;17.90;99.90
29731;DHT22;16639;51.488;0.152;2023-05-27T15:44:07;17.90;99.90
29731;DHT22;16639;51.488;0.152;2023-05-27T15:46:35;17.90;99.90
29731;DHT22;16639;51.488;0.152;2023-05-27T15:49:03;17.90;99.90
29731;DHT22;16639;51.488;0.152;2023-05-27T15:51:30;17.90;99.90
29731;DHT22;16639;51.488;0.152;2023-05-27T15:53:58;17.90;99.90
29731;DHT22;16639;51.488;0.152;2023-05-27T15:56:25;17.90;99.90
29731;DHT22;16639;51.488;0.152;2023-05-27T15:58:52;17.90;99.90
29731;DHT22;16639;51.488;0.152;2023-05-27T16:01:20;18.30;99.90
29731;DHT22;16639;51.488;0.152;2023-05-27T16:03:50;17.90;99.90
29731;DHT22;16639;51.488;0.152;2023-05-27T16:06:17;18.10;99.90
29731;DHT22;16639;51.488;0.152;2023-05-27T16:08:45;18.90;99.90
29731;DHT22;16639;51.488;0.152;2023-05-27T16:11:14;17.90;99.90
29731;DHT22;16639;51.488;0.152;2023-05-27T16:13:41;17.90;99.90
29731;DHT22;16639;51.488;0.152;2023-05-27T16:16:09;17.90;99.90